sensor_id;sensor_type;location;lat;lon;timestamp;P1;durP1;ratioP1;P2;durP2;ratioP2
57535;SDS011;43361;49.790;8.960;2022-12-18T00:00:32;11.30;;;6.57;;
57535;SDS011;43361;49.790;8.960;2022-12-18T00:10:34;11.65;;;6.43;;
57535;SDS011;43361;49.790;8.960;2022-12-18T00:20:39;14.50;;;7.10;;
57535;SDS011;43361;49.790;8.960;2022-12-18T00:30:40;9.70;;;6.10;;
57535;SDS011;43361;49.790;8.960;2022-12-18T00:40:41;11.10;;;6.63;;
57535;SDS011;43361;49.790;8.960;2022-12-18T00:50:43;10.07;;;6.18;;
57535;SDS011;43361;49.790;8.960;2022-12-18T01:00:43;11.23;;;6.75;;
57535;SDS011;43361;49.790;8.960;2022-12-18T01:10:45;9.57;;;5.93;;
57535;SDS011;43361;49.790;8.960;2022-12-18T01:20:45;10.82;;;5.82;;
57535;SDS011;43361;49.790;8.960;2022-12-18T01:30:47;9.95;;;5.60;;
57535;SDS011;43361;49.790;8.960;2022-12-18T01:40:47;10.98;;;6.20;;
57535;SDS011;43361;49.790;8.960;2022-12-18T01:50:49;10.05;;;5.80;;
57535;SDS011;43361;49.790;8.960;2022-12-18T02:00:50;10.90;;;5.25;;
57535;SDS011;43361;49.790;8.960;2022-12-18T02:10:54;9.60;;;5.82;;
57535;SDS011;43361;49.790;8.960;2022-12-18T02:20:58;10.00;;;6.00;;
57535;SDS011;43361;49.790;8.960;2022-12-18T02:31:02;8.80;;;5.47;;
57535;SDS011;43361;49.790;8.960;2022-12-18T02:41:04;8.18;;;5.63;;
57535;SDS011;43361;49.790;8.960;2022-12-18T02:51:08;8.80;;;5.70;;
57535;SDS011;43361;49.790;8.960;2022-12-18T03:01:11;9.00;;;5.82;;
57535;SDS011;43361;49.790;8.960;2022-12-18T03:11:15;9.80;;;5.68;;
57535;SDS011;43361;49.790;8.960;2022-12-18T03:21:37;8.50;;;5.63;;
57535;SDS011;43361;49.790;8.960;2022-12-18T03:31:40;7.38;;;4.70;;
57535;SDS011;43361;49.790;8.960;2022-12-18T03:41:43;7.97;;;4.78;;
57535;SDS011;43361;49.790;8.960;2022-12-18T03:51:48;8.15;;;5.32;;
57535;SDS011;43361;49.790;8.960;2022-12-18T04:01:51;8.50;;;5.35;;
57535;SDS011;43361;49.790;8.960;2022-12-18T04:11:53;7.70;;;4.57;;
57535;SDS011;43361;49.790;8.960;2022-12-18T04:21:54;6.88;;;4.60;;
57535;SDS011;43361;49.790;8.960;2022-12-18T04:31:56;7.18;;;5.20;;
57535;SDS011;43361;49.790;8.960;2022-12-18T04:41:56;7.40;;;4.88;;
57535;SDS011;43361;49.790;8.960;2022-12-18T04:52:01;8.02;;;4.97;;
57535;SDS011;43361;49.790;8.960;2022-12-18T05:02:01;7.72;;;5.20;;
57535;SDS011;43361;49.790;8.960;2022-12-18T05:12:03;7.43;;;5.32;;
57535;SDS011;43361;49.790;8.960;2022-12-18T05:22:03;6.90;;;4.43;;
57535;SDS011;43361;49.790;8.960;2022-12-18T05:32:05;6.75;;;4.53;;
57535;SDS011;43361;49.790;8.960;2022-12-18T05:42:05;6.38;;;3.97;;
57535;SDS011;43361;49.790;8.960;2022-12-18T05:52:07;6.65;;;4.35;;
57535;SDS011;43361;49.790;8.960;2022-12-18T06:02:07;6.45;;;4.60;;
57535;SDS011;43361;49.790;8.960;2022-12-18T06:12:09;6.90;;;4.43;;
57535;SDS011;43361;49.790;8.960;2022-12-18T06:22:10;7.80;;;4.68;;
57535;SDS011;43361;49.790;8.960;2022-12-18T06:32:12;7.93;;;4.57;;
57535;SDS011;43361;49.790;8.960;2022-12-18T06:42:12;10.60;;;4.68;;
57535;SDS011;43361;49.790;8.960;2022-12-18T06:52:14;10.68;;;4.80;;
57535;SDS011;43361;49.790;8.960;2022-12-18T07:02:18;17.85;;;7.32;;
57535;SDS011;43361;49.790;8.960;2022-12-18T07:12:19;17.15;;;7.95;;
57535;SDS011;43361;49.790;8.960;2022-12-18T07:22:20;24.38;;;8.77;;
57535;SDS011;43361;49.790;8.960;2022-12-18T07:32:21;21.17;;;10.30;;
57535;SDS011;43361;49.790;8.960;2022-12-18T07:42:22;23.65;;;9.65;;
57535;SDS011;43361;49.790;8.960;2022-12-18T07:52:33;25.60;;;10.27;;
57535;SDS011;43361;49.790;8.960;2022-12-18T08:02:33;30.17;;;11.05;;
57535;SDS011;43361;49.790;8.960;2022-12-18T08:12:35;32.30;;;9.80;;
57535;SDS011;43361;49.790;8.960;2022-12-18T08:22:35;24.08;;;9.65;;
57535;SDS011;43361;49.790;8.960;2022-12-18T08:32:40;256.35;;;108.43;;
57535;SDS011;43361;49.790;8.960;2022-12-18T08:42:40;83.00;;;35.85;;
57535;SDS011;43361;49.790;8.960;2022-12-18T08:53:01;70.70;;;29.73;;
57535;SDS011;43361;49.790;8.960;2022-12-18T09:03:01;61.60;;;23.67;;
57535;SDS011;43361;49.790;8.960;2022-12-18T09:13:03;42.03;;;21.75;;
57535;SDS011;43361;49.790;8.960;2022-12-18T09:23:04;39.28;;;20.00;;
57535;SDS011;43361;49.790;8.960;2022-12-18T09:33:05;39.03;;;19.85;;
57535;SDS011;43361;49.790;8.960;2022-12-18T09:43:06;39.90;;;19.52;;
57535;SDS011;43361;49.790;8.960;2022-12-18T09:53:12;50.45;;;20.17;;
57535;SDS011;43361;49.790;8.960;2022-12-18T10:03:14;41.88;;;18.70;;
57535;SDS011;43361;49.790;8.960;2022-12-18T10:13:18;32.33;;;18.15;;
57535;SDS011;43361;49.790;8.960;2022-12-18T10:23:21;29.83;;;18.15;;
57535;SDS011;43361;49.790;8.960;2022-12-18T10:33:28;31.65;;;18.48;;
57535;SDS011;43361;49.790;8.960;2022-12-18T10:43:30;34.75;;;17.70;;
57535;SDS011;43361;49.790;8.960;2022-12-18T10:53:32;30.00;;;17.58;;
57535;SDS011;43361;49.790;8.960;2022-12-18T11:03:34;33.25;;;16.92;;
57535;SDS011;43361;49.790;8.960;2022-12-18T11:13:39;86.07;;;31.17;;
57535;SDS011;43361;49.790;8.960;2022-12-18T11:23:44;107.00;;;38.03;;
57535;SDS011;43361;49.790;8.960;2022-12-18T11:33:48;81.95;;;34.97;;
57535;SDS011;43361;49.790;8.960;2022-12-18T11:43:52;75.25;;;32.95;;
57535;SDS011;43361;49.790;8.960;2022-12-18T11:53:55;73.18;;;32.60;;
57535;SDS011;43361;49.790;8.960;2022-12-18T12:03:59;72.80;;;31.17;;
57535;SDS011;43361;49.790;8.960;2022-12-18T12:14:07;75.35;;;29.75;;
57535;SDS011;43361;49.790;8.960;2022-12-18T12:34:16;48.08;;;22.98;;
57535;SDS011;43361;49.790;8.960;2022-12-18T12:44:19;54.38;;;23.15;;
57535;SDS011;43361;49.790;8.960;2022-12-18T12:54:23;45.88;;;21.83;;
57535;SDS011;43361;49.790;8.960;2022-12-18T13:04:27;44.10;;;21.63;;
57535;SDS011;43361;49.790;8.960;2022-12-18T13:14:33;40.40;;;20.35;;
57535;SDS011;43361;49.790;8.960;2022-12-18T13:24:34;36.05;;;19.33;;
57535;SDS011;43361;49.790;8.960;2022-12-18T13:34:36;35.50;;;19.55;;
57535;SDS011;43361;49.790;8.960;2022-12-18T13:44:37;34.58;;;17.80;;
57535;SDS011;43361;49.790;8.960;2022-12-18T13:54:41;34.08;;;18.25;;
57535;SDS011;43361;49.790;8.960;2022-12-18T14:04:44;33.22;;;18.02;;
57535;SDS011;43361;49.790;8.960;2022-12-18T14:14:47;42.28;;;18.15;;
57535;SDS011;43361;49.790;8.960;2022-12-18T14:24:47;30.13;;;17.55;;
57535;SDS011;43361;49.790;8.960;2022-12-18T14:35:13;29.08;;;17.05;;
57535;SDS011;43361;49.790;8.960;2022-12-18T14:45:33;25.85;;;16.20;;
57535;SDS011;43361;49.790;8.960;2022-12-18T14:55:35;26.63;;;15.23;;
57535;SDS011;43361;49.790;8.960;2022-12-18T15:05:35;36.35;;;17.35;;
57535;SDS011;43361;49.790;8.960;2022-12-18T15:15:47;27.38;;;15.07;;
57535;SDS011;43361;49.790;8.960;2022-12-18T15:25:48;26.85;;;15.15;;
57535;SDS011;43361;49.790;8.960;2022-12-18T15:35:56;26.98;;;15.35;;
57535;SDS011;43361;49.790;8.960;2022-12-18T15:45:57;30.92;;;15.02;;
57535;SDS011;43361;49.790;8.960;2022-12-18T15:55:59;21.92;;;13.70;;
57535;SDS011;43361;49.790;8.960;2022-12-18T16:06:18;25.40;;;15.23;;
57535;SDS011;43361;49.790;8.960;2022-12-18T16:26:19;23.40;;;13.83;;
57535;SDS011;43361;49.790;8.960;2022-12-18T16:36:20;22.33;;;13.65;;
57535;SDS011;43361;49.790;8.960;2022-12-18T16:46:22;64.80;;;26.33;;
57535;SDS011;43361;49.790;8.960;2022-12-18T16:56:22;79.95;;;32.08;;
57535;SDS011;43361;49.790;8.960;2022-12-18T17:06:25;83.35;;;33.92;;
57535;SDS011;43361;49.790;8.960;2022-12-18T17:16:25;89.40;;;38.20;;
57535;SDS011;43361;49.790;8.960;2022-12-18T17:26:27;89.10;;;37.08;;
57535;SDS011;43361;49.790;8.960;2022-12-18T17:36:28;74.95;;;36.58;;
57535;SDS011;43361;49.790;8.960;2022-12-18T17:46:32;67.13;;;28.95;;
57535;SDS011;43361;49.790;8.960;2022-12-18T17:56:33;47.60;;;25.90;;
57535;SDS011;43361;49.790;8.960;2022-12-18T18:06:35;48.58;;;24.35;;
57535;SDS011;43361;49.790;8.960;2022-12-18T18:16:37;43.00;;;22.05;;
57535;SDS011;43361;49.790;8.960;2022-12-18T18:26:39;36.35;;;19.92;;
57535;SDS011;43361;49.790;8.960;2022-12-18T18:36:40;31.77;;;17.80;;
57535;SDS011;43361;49.790;8.960;2022-12-18T18:46:42;28.00;;;15.88;;
57535;SDS011;43361;49.790;8.960;2022-12-18T18:56:43;24.15;;;14.60;;
57535;SDS011;43361;49.790;8.960;2022-12-18T19:06:44;23.35;;;13.35;;
57535;SDS011;43361;49.790;8.960;2022-12-18T19:16:46;26.52;;;12.27;;
57535;SDS011;43361;49.790;8.960;2022-12-18T19:26:48;18.55;;;11.98;;
57535;SDS011;43361;49.790;8.960;2022-12-18T19:36:49;19.27;;;10.25;;
57535;SDS011;43361;49.790;8.960;2022-12-18T19:46:50;19.40;;;9.95;;
57535;SDS011;43361;49.790;8.960;2022-12-18T19:56:51;18.02;;;9.45;;
57535;SDS011;43361;49.790;8.960;2022-12-18T20:06:53;13.65;;;8.55;;
57535;SDS011;43361;49.790;8.960;2022-12-18T20:16:54;12.13;;;7.55;;
57535;SDS011;43361;49.790;8.960;2022-12-18T20:26:56;12.63;;;7.82;;
57535;SDS011;43361;49.790;8.960;2022-12-18T20:36:56;11.90;;;7.80;;
57535;SDS011;43361;49.790;8.960;2022-12-18T20:46:58;9.40;;;6.97;;
57535;SDS011;43361;49.790;8.960;2022-12-18T20:57:01;11.02;;;7.07;;
57535;SDS011;43361;49.790;8.960;2022-12-18T21:07:03;10.85;;;6.32;;
57535;SDS011;43361;49.790;8.960;2022-12-18T21:17:03;9.48;;;6.53;;
57535;SDS011;43361;49.790;8.960;2022-12-18T21:27:06;10.25;;;6.20;;
57535;SDS011;43361;49.790;8.960;2022-12-18T21:37:06;8.23;;;5.97;;
57535;SDS011;43361;49.790;8.960;2022-12-18T21:47:08;7.22;;;5.60;;
57535;SDS011;43361;49.790;8.960;2022-12-18T21:57:08;7.70;;;5.68;;
57535;SDS011;43361;49.790;8.960;2022-12-18T22:07:12;8.13;;;5.68;;
57535;SDS011;43361;49.790;8.960;2022-12-18T22:17:13;6.72;;;5.45;;
57535;SDS011;43361;49.790;8.960;2022-12-18T22:27:15;7.90;;;5.65;;
57535;SDS011;43361;49.790;8.960;2022-12-18T22:37:15;7.97;;;5.57;;
57535;SDS011;43361;49.790;8.960;2022-12-18T22:47:17;6.95;;;5.35;;
57535;SDS011;43361;49.790;8.960;2022-12-18T22:57:17;7.65;;;5.82;;
57535;SDS011;43361;49.790;8.960;2022-12-18T23:07:19;7.45;;;5.47;;
57535;SDS011;43361;49.790;8.960;2022-12-18T23:17:19;9.98;;;5.80;;
57535;SDS011;43361;49.790;8.960;2022-12-18T23:27:21;6.90;;;5.50;;
57535;SDS011;43361;49.790;8.960;2022-12-18T23:37:21;6.40;;;5.40;;
57535;SDS011;43361;49.790;8.960;2022-12-18T23:47:23;6.65;;;5.28;;
57535;SDS011;43361;49.790;8.960;2022-12-18T23:57:24;9.05;;;5.75;;
